Downstream station:
SHEF ID: NFSM7 N Fork Spring River nr Purcell, MO
STATION TYPE:
STAGE RIV-FLOW
ft cfs
Ccp-Rev Ccp-Rev
(US/Central)
04/01 00:00 4.43 328
04/01 01:00 4.43 328
04/01 02:00 4.42 325
04/01 03:00 4.41 322
04/01 04:00 4.43 328
04/01 05:00 4.43 328
04/01 06:00 4.46 336
04/01 07:00 4.49 345
04/01 08:00 4.52 354
04/01 09:00 4.55 362
04/01 10:00 4.57 368
04/01 11:00 4.60 377
04/01 12:00 4.61 380
04/01 13:00 4.61 380
04/01 14:00 4.61 380
04/01 15:00 4.61 380
04/01 16:00 4.60 377
04/01 17:00 ---- ----
04/01 18:00 4.57 368
04/01 19:00 4.55 362
04/01 20:00 4.53 357
04/01 21:00 4.50 348
04/01 22:00 4.48 342
04/01 23:00 4.46 336